createdAt,value
2018-05-17T00:02:11.304Z,94.80
2018-05-17T00:04:39.180Z,94.90
2018-05-17T00:07:07.660Z,94.80
2018-05-17T00:09:36.124Z,94.90
2018-05-17T00:12:03.862Z,94.90
2018-05-17T00:14:31.536Z,94.70
2018-05-17T00:16:59.221Z,94.80
2018-05-17T00:19:26.998Z,94.90
2018-05-17T00:21:55.440Z,95.30
2018-05-17T00:24:23.144Z,95.30
2018-05-17T00:26:51.610Z,95.30
2018-05-17T00:29:19.284Z,95.30
2018-05-17T00:31:47.737Z,95.10
2018-05-17T00:34:15.420Z,95.00
2018-05-17T00:36:43.916Z,95.20
2018-05-17T00:39:12.356Z,95.10
2018-05-17T00:41:40.037Z,95.10
2018-05-17T00:44:07.717Z,95.20
2018-05-17T00:46:36.182Z,95.40
2018-05-17T00:49:04.646Z,95.00
2018-05-17T00:51:32.816Z,95.00
2018-05-17T00:54:00.479Z,94.10
2018-05-17T00:56:28.161Z,94.60
2018-05-17T00:58:55.843Z,94.80
2018-05-17T01:01:24.308Z,95.10
2018-05-17T01:03:52.008Z,95.10
2018-05-17T01:06:19.705Z,95.00
2018-05-17T01:08:47.476Z,94.50
2018-05-17T01:11:15.157Z,94.80
2018-05-17T01:13:42.861Z,94.60
2018-05-17T01:16:10.549Z,94.60
2018-05-17T01:18:38.224Z,95.10
2018-05-17T01:21:05.936Z,94.40
2018-05-17T01:23:33.971Z,94.60
2018-05-17T01:26:01.653Z,95.20
2018-05-17T01:28:30.097Z,95.20
2018-05-17T01:30:57.788Z,95.10
2018-05-17T01:33:25.464Z,95.70
2018-05-17T01:35:53.908Z,94.90
2018-05-17T01:38:28.676Z,94.80
2018-05-17T01:40:57.236Z,94.70
2018-05-17T01:43:24.922Z,94.70
2018-05-17T01:45:52.632Z,95.50
2018-05-17T01:48:20.304Z,95.70
2018-05-17T01:50:47.984Z,95.60
2018-05-17T01:53:15.668Z,96.00
2018-05-17T01:55:44.131Z,94.80
2018-05-17T01:58:11.833Z,94.70
2018-05-17T02:00:39.604Z,94.50
2018-05-17T02:03:07.290Z,95.10
2018-05-17T02:05:34.966Z,95.20
2018-05-17T02:08:02.665Z,95.10
2018-05-17T02:10:31.229Z,95.40
2018-05-17T02:12:59.180Z,95.40
2018-05-17T02:15:26.861Z,95.10
2018-05-17T02:17:54.553Z,95.60
2018-05-17T02:20:22.290Z,95.70
2018-05-17T02:22:49.964Z,95.10
2018-05-17T02:25:17.656Z,96.40
2018-05-17T02:27:45.697Z,95.20
2018-05-17T02:30:14.164Z,95.50
2018-05-17T02:32:41.846Z,95.50
2018-05-17T02:35:10.292Z,95.20
2018-05-17T02:37:37.969Z,95.20
2018-05-17T02:40:05.681Z,95.60
2018-05-17T02:42:33.369Z,95.70
2018-05-17T02:45:01.074Z,95.20
2018-05-17T02:47:29.516Z,95.50
2018-05-17T02:49:57.203Z,95.50
2018-05-17T02:52:24.893Z,95.70
2018-05-17T02:54:52.581Z,95.80
2018-05-17T02:57:20.332Z,95.80
2018-05-17T02:59:48.058Z,95.30
2018-05-17T03:02:16.517Z,95.60
2018-05-17T03:04:44.198Z,95.50
2018-05-17T03:07:11.876Z,95.50
2018-05-17T03:09:40.345Z,95.70
2018-05-17T03:12:08.208Z,95.70
2018-05-17T03:14:35.886Z,95.60
2018-05-17T03:17:04.372Z,95.70
2018-05-17T03:19:32.833Z,95.80
2018-05-17T03:22:00.512Z,95.70
2018-05-17T03:24:28.226Z,95.90
2018-05-17T03:26:55.921Z,95.80
2018-05-17T03:29:24.604Z,95.80
2018-05-17T03:31:53.132Z,95.90
2018-05-17T03:34:20.817Z,95.70
2018-05-17T03:36:48.533Z,95.70
2018-05-17T03:39:16.970Z,95.40
2018-05-17T03:41:44.657Z,95.40
2018-05-17T03:44:12.336Z,95.50
2018-05-17T03:46:40.793Z,95.30
2018-05-17T03:49:08.532Z,95.30
2018-05-17T03:51:36.228Z,95.70
2018-05-17T03:54:03.933Z,95.70
2018-05-17T03:56:31.620Z,96.00
2018-05-17T03:58:59.312Z,95.70
2018-05-17T04:01:38.888Z,95.80
2018-05-17T04:04:18.953Z,95.70
2018-05-17T04:06:46.640Z,95.80
2018-05-17T04:09:14.333Z,95.90
2018-05-17T04:11:42.041Z,96.00
2018-05-17T04:14:09.793Z,95.90
2018-05-17T04:16:37.529Z,95.90
2018-05-17T04:19:05.214Z,95.30
2018-05-17T04:21:33.096Z,95.50
2018-05-17T04:24:00.802Z,95.50
2018-05-17T04:26:28.530Z,95.60
2018-05-17T04:28:56.264Z,95.70
2018-05-17T04:31:24.808Z,95.40
2018-05-17T04:33:52.615Z,95.40
2018-05-17T04:36:21.220Z,95.00
2018-05-17T04:38:48.925Z,94.90
2018-05-17T04:41:17.874Z,95.20
2018-05-17T04:43:45.649Z,94.90
2018-05-17T04:46:13.461Z,95.00
2018-05-17T04:48:41.204Z,94.80
2018-05-17T04:51:08.908Z,94.70
2018-05-17T04:53:37.468Z,94.70
2018-05-17T04:56:05.158Z,94.60
2018-05-17T04:58:33.697Z,95.30
2018-05-17T05:01:01.396Z,95.30
2018-05-17T05:03:29.883Z,94.90
2018-05-17T05:05:58.373Z,95.30
2018-05-17T05:08:26.109Z,95.30
2018-05-17T05:10:53.917Z,95.20
2018-05-17T05:13:21.609Z,94.80
2018-05-17T05:15:49.329Z,94.80
2018-05-17T05:18:17.033Z,95.00
2018-05-17T05:20:44.772Z,95.20
2018-05-17T05:23:12.485Z,94.40
2018-05-17T05:25:40.335Z,94.70
2018-05-17T05:28:08.036Z,94.50
2018-05-17T05:30:36.569Z,94.50
2018-05-17T05:33:04.335Z,94.50
2018-05-17T05:35:32.033Z,94.10
2018-05-17T05:37:59.741Z,94.10
2018-05-17T05:40:27.527Z,93.80
2018-05-17T05:42:55.272Z,93.80
2018-05-17T05:45:23.054Z,94.10
2018-05-17T05:47:50.833Z,94.00
2018-05-17T05:50:18.612Z,93.60
2018-05-17T05:52:46.393Z,93.30
2018-05-17T05:55:14.926Z,93.00
2018-05-17T05:57:42.704Z,93.00
2018-05-17T06:00:10.525Z,93.60
2018-05-17T06:02:38.268Z,93.00
2018-05-17T06:05:06.022Z,92.90
2018-05-17T06:07:33.718Z,92.30
2018-05-17T06:10:01.462Z,92.30
2018-05-17T06:12:30.410Z,92.30
2018-05-17T06:14:58.154Z,92.30
2018-05-17T06:17:26.042Z,92.10
2018-05-17T06:19:54.516Z,92.40
2018-05-17T06:22:22.238Z,92.40
2018-05-17T06:24:50.805Z,92.60
2018-05-17T06:27:19.324Z,92.50
2018-05-17T06:29:47.151Z,92.50
2018-05-17T06:32:15.641Z,92.10
2018-05-17T06:34:44.133Z,92.40
2018-05-17T06:37:12.661Z,92.00
2018-05-17T06:39:40.405Z,92.00
2018-05-17T06:42:08.156Z,92.20
2018-05-17T06:44:36.260Z,92.40
2018-05-17T06:47:04.020Z,91.60
2018-05-17T06:49:31.738Z,91.70
2018-05-17T06:51:59.543Z,91.60
2018-05-17T06:54:27.296Z,91.50
2018-05-17T06:56:55.017Z,91.20
2018-05-17T06:59:22.760Z,90.30
2018-05-17T07:01:50.511Z,90.50
2018-05-17T07:04:18.255Z,90.20
2018-05-17T07:06:46.021Z,89.50
2018-05-17T07:09:13.762Z,90.30
2018-05-17T07:11:41.578Z,89.80
2018-05-17T07:14:09.319Z,89.50
2018-05-17T07:16:37.331Z,90.50
2018-05-17T07:19:05.105Z,90.90
2018-05-17T07:21:33.664Z,89.30
2018-05-17T07:24:01.456Z,89.10
2018-05-17T07:26:29.177Z,89.30
2018-05-17T07:28:56.889Z,87.20
2018-05-17T07:31:25.439Z,89.20
2018-05-17T07:33:53.242Z,89.10
2018-05-17T07:36:21.713Z,85.90
2018-05-17T07:38:50.203Z,86.70
2018-05-17T07:41:19.788Z,86.00
2018-05-17T07:43:47.480Z,86.00
2018-05-17T07:46:15.224Z,84.20
2018-05-17T07:48:44.058Z,83.40
2018-05-17T07:51:11.852Z,83.20
2018-05-17T07:53:39.634Z,84.30
2018-05-17T07:56:07.381Z,84.30
2018-05-17T07:58:35.077Z,81.60
2018-05-17T08:01:03.614Z,81.90
2018-05-17T08:03:31.394Z,81.80
2018-05-17T08:05:59.177Z,81.00
2018-05-17T08:08:26.916Z,81.10
2018-05-17T08:10:54.696Z,78.90
2018-05-17T08:13:22.443Z,80.20
2018-05-17T08:15:50.200Z,77.00
2018-05-17T08:18:17.959Z,78.60
2018-05-17T08:20:45.914Z,74.20
2018-05-17T08:23:13.663Z,76.40
2018-05-17T08:25:41.432Z,75.00
2018-05-17T08:28:09.176Z,71.70
2018-05-17T08:30:36.992Z,72.40
2018-05-17T08:33:04.801Z,73.20
2018-05-17T08:35:33.285Z,77.50
2018-05-17T08:38:02.006Z,74.90
2018-05-17T08:40:29.748Z,74.90
2018-05-17T08:42:58.300Z,76.70
2018-05-17T08:45:26.058Z,76.60
2018-05-17T08:47:53.885Z,74.30
2018-05-17T08:50:21.664Z,77.50
2018-05-17T08:52:49.414Z,75.80
2018-05-17T08:55:17.230Z,75.60
2018-05-17T08:57:44.955Z,72.50
2018-05-17T09:00:12.704Z,72.90
2018-05-17T09:02:40.440Z,72.50
2018-05-17T09:05:08.901Z,65.20
2018-05-17T09:07:37.384Z,67.40
2018-05-17T09:10:05.221Z,67.30
2018-05-17T09:12:32.984Z,68.70
2018-05-17T09:15:00.681Z,64.80
2018-05-17T09:17:29.168Z,65.90
2018-05-17T09:19:58.671Z,67.60
2018-05-17T09:22:27.169Z,62.40
2018-05-17T09:24:55.159Z,62.40
2018-05-17T09:27:22.898Z,63.60
2018-05-17T09:29:51.409Z,66.40
2018-05-17T09:32:19.124Z,66.40
2018-05-17T09:34:47.615Z,67.10
2018-05-17T09:37:16.128Z,62.70
2018-05-17T09:39:43.854Z,62.70
2018-05-17T09:42:11.682Z,67.20
2018-05-17T09:44:39.371Z,64.70
2018-05-17T09:47:07.081Z,63.60
2018-05-17T09:49:34.801Z,62.20
2018-05-17T09:52:02.600Z,65.40
2018-05-17T09:54:30.360Z,61.90
2018-05-17T09:56:58.109Z,59.30
2018-05-17T09:59:26.577Z,62.30
2018-05-17T10:01:54.356Z,62.30
2018-05-17T10:04:22.105Z,59.70
2018-05-17T10:06:49.878Z,56.80
2018-05-17T10:09:18.345Z,58.40
2018-05-17T10:11:46.180Z,58.30
2018-05-17T10:14:14.113Z,56.40
2018-05-17T10:16:41.820Z,57.40
2018-05-17T10:19:09.515Z,54.00
2018-05-17T10:21:38.071Z,55.30
2018-05-17T10:24:05.829Z,55.30
2018-05-17T10:26:33.565Z,55.70
2018-05-17T10:29:01.261Z,58.30
2018-05-17T10:31:29.000Z,59.20
2018-05-17T10:33:57.022Z,61.40
2018-05-17T10:36:24.808Z,62.50
2018-05-17T10:38:52.533Z,64.40
2018-05-17T10:41:20.321Z,63.80
2018-05-17T10:43:48.805Z,65.70
2018-05-17T10:46:17.296Z,60.10
2018-05-17T10:48:45.787Z,58.40
2018-05-17T10:51:13.561Z,58.30
2018-05-17T10:53:41.342Z,59.60
2018-05-17T10:56:09.056Z,58.30
2018-05-17T10:58:36.823Z,61.60
2018-05-17T11:01:06.375Z,62.80
2018-05-17T11:03:34.234Z,62.70
2018-05-17T11:06:01.987Z,61.50
2018-05-17T11:08:29.749Z,59.70
2018-05-17T11:10:57.550Z,60.70
2018-05-17T11:13:25.391Z,60.20
2018-05-17T11:15:53.085Z,63.10
2018-05-17T11:18:20.816Z,62.50
2018-05-17T11:20:48.552Z,61.80
2018-05-17T11:23:17.101Z,63.60
2018-05-17T11:25:44.779Z,63.50
2018-05-17T11:28:12.564Z,65.20
2018-05-17T11:30:41.148Z,60.80
2018-05-17T11:33:09.707Z,63.30
2018-05-17T11:35:38.189Z,62.50
2018-05-17T11:38:05.962Z,62.50
2018-05-17T11:40:33.769Z,65.40
2018-05-17T11:43:01.469Z,64.70
2018-05-17T11:45:29.231Z,65.30
2018-05-17T11:47:56.958Z,65.80
2018-05-17T11:50:24.925Z,66.30
2018-05-17T11:52:52.566Z,65.00
2018-05-17T11:55:20.278Z,62.90
2018-05-17T11:57:48.024Z,59.60
2018-05-17T12:00:15.781Z,63.40
2018-05-17T12:02:43.589Z,64.40
2018-05-17T12:05:11.312Z,60.80
2018-05-17T12:07:39.116Z,63.60
2018-05-17T12:10:07.561Z,62.50
2018-05-17T12:12:35.288Z,62.30
2018-05-17T12:15:03.861Z,64.80
2018-05-17T12:17:31.617Z,64.80
2018-05-17T12:19:59.354Z,65.30
2018-05-17T12:22:27.120Z,66.20
2018-05-17T12:24:54.868Z,66.70
2018-05-17T12:27:22.597Z,66.50
2018-05-17T12:29:51.112Z,67.00
2018-05-17T12:32:18.821Z,67.00
2018-05-17T12:34:46.533Z,65.60
2018-05-17T12:37:14.300Z,66.10
2018-05-17T12:39:42.028Z,70.00
2018-05-17T12:42:10.478Z,70.00
2018-05-17T12:44:38.212Z,69.90
2018-05-17T12:47:05.934Z,71.00
2018-05-17T12:49:34.432Z,65.80
2018-05-17T12:52:02.150Z,65.70
2018-05-17T12:54:29.947Z,69.90
2018-05-17T12:56:58.448Z,67.40
2018-05-17T12:59:26.157Z,67.30
2018-05-17T13:01:53.869Z,63.20
2018-05-17T13:04:21.585Z,63.70
2018-05-17T13:06:49.749Z,65.30
2018-05-17T13:09:17.473Z,67.40
2018-05-17T13:11:45.492Z,63.90
2018-05-17T13:14:13.069Z,68.70
2018-05-17T13:16:40.768Z,63.60
2018-05-17T13:19:08.475Z,60.20
2018-05-17T13:21:36.194Z,62.20
2018-05-17T13:24:04.022Z,60.80
2018-05-17T13:26:31.919Z,58.60
2018-05-17T13:28:59.659Z,56.10
2018-05-17T13:31:27.505Z,55.30
2018-05-17T13:33:56.087Z,58.40
2018-05-17T13:36:23.804Z,58.40
2018-05-17T13:38:51.512Z,58.90
2018-05-17T13:41:19.242Z,61.70
2018-05-17T13:43:46.957Z,61.40
2018-05-17T13:46:14.693Z,60.60
2018-05-17T13:48:42.505Z,61.20
2018-05-17T13:51:11.045Z,62.80
2018-05-17T13:53:38.841Z,62.80
2018-05-17T13:56:06.613Z,64.10
2018-05-17T13:58:35.110Z,59.20
2018-05-17T14:01:02.885Z,59.00
2018-05-17T14:03:30.592Z,58.60
2018-05-17T14:05:58.503Z,62.90
2018-05-17T14:08:27.051Z,63.50
2018-05-17T14:10:55.105Z,63.50
2018-05-17T14:13:22.844Z,65.10
2018-05-17T14:15:50.573Z,67.20
2018-05-17T14:18:19.032Z,65.40
2018-05-17T14:20:46.784Z,65.30
2018-05-17T14:23:14.537Z,68.50
2018-05-17T14:25:42.265Z,60.70
2018-05-17T14:28:10.013Z,58.70
2018-05-17T14:30:38.594Z,56.90
2018-05-17T14:33:07.117Z,57.40
2018-05-17T14:35:34.872Z,57.40
2018-05-17T14:38:02.605Z,56.00
2018-05-17T14:40:31.151Z,53.30
2018-05-17T14:42:59.225Z,53.20
2018-05-17T14:45:26.983Z,48.30
2018-05-17T14:47:54.672Z,48.10
2018-05-17T14:50:22.421Z,48.50
2018-05-17T14:52:50.139Z,45.70
2018-05-17T14:55:17.984Z,45.90
2018-05-17T14:57:45.600Z,47.10
2018-05-17T15:00:13.311Z,44.20
2018-05-17T15:02:41.075Z,44.40
2018-05-17T15:05:09.589Z,41.00
2018-05-17T15:07:37.279Z,41.00
2018-05-17T15:10:05.059Z,41.20
2018-05-17T15:12:32.845Z,40.50
2018-05-17T15:15:01.421Z,42.30
2018-05-17T15:17:29.922Z,42.50
2018-05-17T15:19:57.756Z,42.40
2018-05-17T15:22:25.513Z,42.10
2018-05-17T15:24:53.371Z,41.80
2018-05-17T15:27:21.127Z,43.30
2018-05-17T15:29:49.102Z,44.60
2018-05-17T15:32:17.503Z,43.00
2018-05-17T15:34:45.249Z,42.50
2018-05-17T15:37:13.001Z,42.50
2018-05-17T15:39:40.765Z,43.80
2018-05-17T15:42:08.489Z,42.30
2018-05-17T15:44:36.217Z,42.60
2018-05-17T15:47:04.159Z,43.80
2018-05-17T15:49:31.949Z,42.50
2018-05-17T15:51:59.698Z,42.60
2018-05-17T15:54:27.396Z,42.00
2018-05-17T15:56:55.889Z,43.30
2018-05-17T15:59:23.645Z,43.30
2018-05-17T16:01:52.181Z,43.90
2018-05-17T16:04:19.912Z,43.80
2018-05-17T16:06:47.719Z,43.60
2018-05-17T16:09:15.417Z,49.20
2018-05-17T16:11:43.970Z,48.30
2018-05-17T16:14:11.768Z,48.20
2018-05-17T16:16:40.268Z,52.40
2018-05-17T16:19:08.276Z,52.30
2018-05-17T16:21:35.972Z,52.80
2018-05-17T16:24:03.748Z,51.70
2018-05-17T16:26:31.508Z,53.40
2018-05-17T16:29:00.073Z,55.00
2018-05-17T16:31:27.837Z,54.90
2018-05-17T16:33:55.588Z,55.50
2018-05-17T16:36:23.282Z,56.30
2018-05-17T16:38:51.822Z,55.80
2018-05-17T16:41:19.515Z,55.70
2018-05-17T16:43:47.227Z,58.20
2018-05-17T16:46:14.998Z,57.80
2018-05-17T16:48:42.713Z,58.20
2018-05-17T16:51:11.661Z,63.30
2018-05-17T16:53:39.393Z,63.10
2018-05-17T16:56:07.139Z,63.50
2018-05-17T16:58:35.652Z,62.10
2018-05-17T17:01:03.468Z,61.20
2018-05-17T17:03:31.206Z,61.10
2018-05-17T17:05:58.921Z,66.00
2018-05-17T17:08:27.386Z,66.90
2018-05-17T17:10:55.200Z,67.00
2018-05-17T17:13:22.917Z,67.00
2018-05-17T17:15:51.462Z,69.40
2018-05-17T17:18:19.176Z,69.40
2018-05-17T17:20:46.933Z,70.50
2018-05-17T17:23:15.476Z,69.40
2018-05-17T17:25:43.213Z,69.40
2018-05-17T17:28:10.940Z,71.10
2018-05-17T17:30:39.460Z,72.60
2018-05-17T17:33:07.181Z,72.50
2018-05-17T17:35:35.675Z,72.60
2018-05-17T17:38:04.168Z,71.60
2018-05-17T17:40:37.605Z,71.60
2018-05-17T17:43:05.380Z,70.20
2018-05-17T17:45:33.150Z,71.40
2018-05-17T17:48:00.856Z,70.10
2018-05-17T17:50:28.624Z,72.80
2018-05-17T17:52:56.329Z,69.50
2018-05-17T17:55:24.499Z,70.50
2018-05-17T17:57:52.229Z,68.10
2018-05-17T18:00:20.034Z,71.20
2018-05-17T18:02:47.773Z,69.10
2018-05-17T18:05:15.534Z,69.50
2018-05-17T18:07:43.248Z,69.70
2018-05-17T18:10:11.043Z,70.10
2018-05-17T18:12:38.753Z,72.10
2018-05-17T18:15:06.621Z,73.10
2018-05-17T18:17:34.322Z,69.80
2018-05-17T18:20:02.823Z,70.60
2018-05-17T18:22:30.548Z,70.60
2018-05-17T18:24:58.368Z,72.20
2018-05-17T18:27:26.465Z,70.60
2018-05-17T18:29:54.184Z,72.30
2018-05-17T18:32:21.915Z,71.90
2018-05-17T18:34:50.510Z,73.10
2018-05-17T18:37:19.001Z,72.80
2018-05-17T18:39:47.557Z,74.30
2018-05-17T18:42:15.303Z,74.30
2018-05-17T18:44:43.027Z,74.30
2018-05-17T18:47:10.768Z,75.70
2018-05-17T18:49:39.280Z,76.80
2018-05-17T18:52:07.001Z,76.80
2018-05-17T18:54:34.788Z,75.70
2018-05-17T18:57:02.630Z,76.20
2018-05-17T18:59:30.377Z,76.80
2018-05-17T19:01:58.157Z,77.60
2018-05-17T19:04:25.891Z,77.90
2018-05-17T19:06:53.592Z,79.60
2018-05-17T19:09:21.291Z,77.60
2018-05-17T19:11:49.020Z,78.50
2018-05-17T19:14:16.777Z,79.00
2018-05-17T19:16:44.521Z,79.60
2018-05-17T19:19:12.293Z,80.80
2018-05-17T19:21:40.054Z,80.90
2018-05-17T19:24:07.800Z,82.30
2018-05-17T19:26:35.537Z,81.30
2018-05-17T19:29:03.281Z,82.10
2018-05-17T19:31:31.830Z,81.30
2018-05-17T19:33:59.645Z,81.20
2018-05-17T19:36:27.372Z,81.50
2018-05-17T19:38:55.104Z,81.80
2018-05-17T19:41:22.822Z,81.50
2018-05-17T19:43:51.356Z,82.80
2018-05-17T19:46:19.082Z,82.70
2018-05-17T19:48:46.781Z,83.00
2018-05-17T19:51:14.570Z,82.60
2018-05-17T19:53:42.313Z,82.90
2018-05-17T19:56:10.059Z,83.50
2018-05-17T19:58:37.781Z,83.00
2018-05-17T20:01:06.324Z,83.50
2018-05-17T20:03:34.182Z,83.50
2018-05-17T20:06:01.886Z,83.20
2018-05-17T20:08:30.387Z,83.40
2018-05-17T20:10:58.145Z,83.30
2018-05-17T20:13:26.609Z,82.70
2018-05-17T20:15:54.300Z,82.70
2018-05-17T20:18:22.077Z,82.80
2018-05-17T20:20:49.796Z,82.60
2018-05-17T20:23:17.539Z,81.80
2018-05-17T20:25:45.245Z,83.00
2018-05-17T20:28:14.042Z,84.30
2018-05-17T20:30:41.846Z,84.20
2018-05-17T20:33:09.548Z,83.50
2018-05-17T20:35:37.248Z,83.70
2018-05-17T20:38:04.940Z,83.90
2018-05-17T20:40:32.630Z,84.10
2018-05-17T20:43:00.304Z,84.10
2018-05-17T20:45:28.743Z,86.10
2018-05-17T20:47:56.412Z,86.10
2018-05-17T20:50:24.072Z,86.40
2018-05-17T20:52:51.789Z,86.20
2018-05-17T20:55:20.241Z,86.10
2018-05-17T20:57:47.916Z,86.00
2018-05-17T21:00:16.382Z,87.00
2018-05-17T21:02:44.091Z,86.90
2018-05-17T21:05:11.790Z,87.60
2018-05-17T21:07:39.481Z,87.40
2018-05-17T21:10:07.958Z,87.80
2018-05-17T21:12:36.411Z,87.50
2018-05-17T21:15:04.173Z,87.50
2018-05-17T21:17:31.870Z,88.10
2018-05-17T21:20:00.341Z,88.10
2018-05-17T21:22:28.021Z,88.00
2018-05-17T21:24:56.465Z,88.10
2018-05-17T21:27:24.253Z,88.10
2018-05-17T21:29:51.928Z,88.70
2018-05-17T21:32:20.369Z,88.40
2018-05-17T21:34:48.825Z,88.80
2018-05-17T21:37:16.505Z,88.80
2018-05-17T21:39:44.346Z,89.00
2018-05-17T21:42:12.034Z,89.10
2018-05-17T21:44:39.708Z,89.30
2018-05-17T21:47:07.373Z,90.30
2018-05-17T21:49:35.053Z,89.70
2018-05-17T21:52:03.577Z,90.30
2018-05-17T21:54:31.281Z,90.30
2018-05-17T21:56:58.966Z,90.60
2018-05-17T21:59:27.444Z,90.90
2018-05-17T22:01:55.116Z,90.90
2018-05-17T22:04:23.565Z,90.50
2018-05-17T22:06:51.297Z,90.40
2018-05-17T22:09:18.993Z,91.20
2018-05-17T22:11:47.028Z,91.10
2018-05-17T22:14:14.716Z,90.50
2018-05-17T22:16:42.448Z,90.90
2018-05-17T22:19:10.137Z,91.20
2018-05-17T22:21:37.837Z,91.10
2018-05-17T22:24:06.292Z,91.30
2018-05-17T22:26:33.978Z,91.30
2018-05-17T22:29:01.655Z,91.30
2018-05-17T22:31:30.220Z,92.00
2018-05-17T22:33:57.911Z,91.70
2018-05-17T22:36:25.614Z,91.60
2018-05-17T22:38:53.308Z,91.80
2018-05-17T22:41:21.154Z,91.40
2018-05-17T22:43:49.189Z,91.80
2018-05-17T22:46:16.917Z,91.70
2018-05-17T22:48:45.372Z,91.50
2018-05-17T22:51:13.053Z,91.50
2018-05-17T22:53:40.727Z,92.20
2018-05-17T22:56:09.277Z,92.10
2018-05-17T22:58:37.093Z,92.10
2018-05-17T23:01:04.876Z,92.10
2018-05-17T23:03:32.793Z,92.50
2018-05-17T23:06:00.529Z,93.10
2018-05-17T23:08:28.309Z,93.10
2018-05-17T23:10:56.005Z,92.10
2018-05-17T23:13:24.469Z,92.50
2018-05-17T23:15:52.173Z,92.50
2018-05-17T23:18:19.862Z,92.40
2018-05-17T23:20:47.557Z,92.20
2018-05-17T23:23:15.329Z,92.90
2018-05-17T23:25:43.776Z,93.10
2018-05-17T23:28:11.469Z,93.10
2018-05-17T23:30:39.233Z,93.10
2018-05-17T23:33:06.921Z,93.60
2018-05-17T23:35:34.639Z,93.30
2018-05-17T23:38:02.321Z,92.90
2018-05-17T23:40:55.960Z,92.20
2018-05-17T23:43:23.648Z,93.20
2018-05-17T23:45:51.325Z,93.40
2018-05-17T23:48:19.792Z,93.60
2018-05-17T23:50:47.560Z,93.60
2018-05-17T23:53:15.237Z,93.80
2018-05-17T23:55:43.680Z,93.70
2018-05-17T23:58:11.366Z,93.70
